• Join FlightAware (Why Join?)
  • Login
  • US Flag 
03:00PM EDT


 

Airport Tracker/Info


-or-


 

Live Flight TrackerFlight Track Log ✈ DAL268 ✈ 06-Jun-2013 ✈ KJFK - LLBG / TLV

Flight Track Log - Related Links

Times and Time Zones

All times are in EDT time to prevent confusion due to time zone crossing. See the DAL268 flight status page for this flight to view local times or setup timezone preferences in your user account.

Time Position Orientation Groundspeed Altitude Reporting Facility
EDT Latitude Longitude Course Direction KTS MPH feet Rate Location/Type
11:26PM 40.6370 -73.7800 264° West  Level FlightAware
11:30PM 40.6370 -73.7790 90° East 11 13  Level FlightAware
11:30PM 40.6380 -73.7790 360° North 11 13  Level FlightAware
11:33PM 40.5243 -73.4397 114° Southeast  Level FlightAware Approximate
11:34PM 40.4730 -73.2794 123° Southeast  Level FlightAware Approximate
11:35PM 40.4216 -73.1170 119° Southeast  Level FlightAware Approximate
11:36PM 40.3869 -72.9525 72° East  Level FlightAware Approximate
11:37PM 40.4252 -72.7825 72° East  Level FlightAware Approximate
11:37PM 40.6360 -73.7790 180° South 21 24  Level FlightAware
11:38PM 40.6350 -73.7770 123° Southeast 18 21 60 Level FlightAware
11:38PM 40.6340 -73.7780 217° Southwest 27 31 60 Level FlightAware
11:39PM 40.6340 -73.7810 270° West 32 37 60 Level FlightAware
11:40PM 40.6350 -73.7840 294° West 16 18 60 Level FlightAware
11:41PM 40.6370 -73.7890 298° West 18 21 60 Level FlightAware
11:41PM 40.6390 -73.7920 311° West 15 17 60 Level FlightAware
11:42PM 40.6400 -73.7960 288° West 16 18 60 Level FlightAware
11:43PM 40.6420 -73.7990 311° West 17 20 120 Level FlightAware
11:43PM 40.6430 -73.8010 303° West 18 21 120 Level FlightAware
11:44PM 40.6450 -73.8050 303° West 34 39 120 Level FlightAware
11:44PM 40.6480 -73.8060 346° North 32 37 120 Level FlightAware
11:45PM 40.6500 -73.8070 339° North 34 39 180 Level FlightAware
11:46PM 40.6490 -73.8150 261° West 31 36 240 Level FlightAware
11:46PM 40.6520 -73.8140 14° North 31 36 300 Level FlightAware
11:48PM 40.6350 -73.7890 132° Southeast 420 Level FlightAware
11:48PM 40.6220 -73.7620 122° Southeast 177 204 800 1,500 Climbing FlightAware
11:49PM 40.6030 -73.7420 141° Southeast 187 215 1,500 1,140 Climbing FlightAware
11:49PM 40.5830 -73.7200 140° Southeast 217 250 1,900 780 Climbing FlightAware
11:49PM 40.5780 -73.7010 109° East 234 269 2,100 900 Climbing FlightAware
11:50PM 40.5790 -73.6580 88° East 259 298 2,600 1,500 Climbing FlightAware
11:50PM 40.5820 -73.6190 84° East 271 312 3,400 2,100 Climbing FlightAware
11:51PM 40.5818 -73.5914 91° East 273 314 4,000 2,160 Climbing FlightAware ADS-B
11:51PM 40.5802 -73.5817 102° East 272 313 4,200 2,040 Climbing FlightAware ADS-B
11:51PM 40.5667 -73.5382 112° Southeast 272 313 5,200 2,040 Climbing FlightAware ADS-B
11:51PM 40.5590 -73.5129 112° Southeast 283 326 5,700 1,920 Climbing FlightAware ADS-B
11:52PM 40.5507 -73.4872 113° Southeast 288 331 6,200 1,980 Climbing FlightAware ADS-B
11:52PM 40.5415 -73.4595 114° Southeast 294 338 6,800 1,980 Climbing FlightAware ADS-B
11:52PM 40.5329 -73.4329 113° Southeast 298 343 7,300 1,920 Climbing FlightAware ADS-B
11:52PM 40.5247 -73.4073 113° Southeast 305 351 7,800 1,740 Climbing FlightAware ADS-B
11:53PM 40.5161 -73.3816 114° Southeast 311 358 8,200 1,500 Climbing FlightAware ADS-B
11:53PM 40.5067 -73.3514 112° Southeast 320 368 8,600 1,080 Climbing FlightAware ADS-B
11:53PM 40.4973 -73.3220 113° Southeast 336 387 8,800 1,080 Climbing FlightAware ADS-B
11:53PM 40.4875 -73.2914 113° Southeast 344 396 9,200 1,620 Climbing FlightAware ADS-B
11:54PM 40.4766 -73.2583 113° Southeast 350 403 9,700 1,500 Climbing FlightAware ADS-B
11:54PM 40.4566 -73.1964 113° Southeast 367 422 10,400 1,200 Climbing FlightAware ADS-B
11:55PM 40.4328 -73.1237 113° Southeast 396 456 11,000 1,140 Climbing FlightAware ADS-B
11:55PM 40.4079 -73.0485 113° Southeast 418 481 11,700 1,380 Climbing FlightAware ADS-B
11:56PM 40.4014 -73.0273 112° Southeast 423 487 12,000 1,860 Climbing FlightAware ADS-B
11:56PM 40.3979 -73.0123 107° East 426 490 12,200 1,860 Climbing FlightAware ADS-B
11:56PM 40.3952 -72.9867 98° East 432 497 12,500 2,100 Climbing FlightAware ADS-B
11:56PM 40.3947 -72.9736 93° East 434 499 12,700 1,980 Climbing FlightAware ADS-B
11:56PM 40.3967 -72.9417 85° East 440 506 13,100 1,980 Climbing FlightAware ADS-B
11:56PM 40.3991 -72.9262 79° East 441 507 13,300 2,340 Climbing FlightAware ADS-B
11:57PM 40.4212 -72.8419 71° East 448 516 14,600 2,220 Climbing FlightAware ADS-B
11:57PM 40.4449 -72.7810 63° Northeast 453 521 15,500 1,980 Climbing FlightAware ADS-B
11:58PM 40.4810 -72.6990 60° Northeast 459 528 16,700 1,860 Climbing FlightAware
11:58PM 40.5260 -72.5960 60° Northeast 471 542 17,900 1,860 Climbing FlightAware
11:59PM 40.5348 -72.5761 60° Northeast 463 533 18,200 1,860 Climbing FlightAware ADS-B
11:59PM 40.5677 -72.4980 61° Northeast 480 552 19,100 1,680 Climbing FlightAware ADS-B
12:00AM 40.6011 -72.4211 60° Northeast 485 558 19,900 1,560 Climbing FlightAware ADS-B
12:01AM 40.6670 -72.2670 61° Northeast 497 572 21,500 1,560 Climbing FlightAware
12:01AM 40.7077 -72.1714 61° Northeast 22,400 1,560 Climbing FlightAware ADS-B
12:02AM 40.7422 -72.0904 61° Northeast 509 586 23,200 1,320 Climbing FlightAware ADS-B
12:03AM 40.8068 -71.9395 60° Northeast 522 601 24,300 1,140 Climbing FlightAware ADS-B
12:03AM 40.8483 -71.8414 61° Northeast 528 608 25,000 1,200 Climbing FlightAware ADS-B
12:04AM 40.8845 -71.7535 61° Northeast 535 616 25,600 1,140 Climbing FlightAware ADS-B
12:04AM 40.9231 -71.6614 61° Northeast 539 620 26,200 660 Climbing FlightAware ADS-B
12:05AM 40.9600 -71.5750 60° Northeast 540 621 26,400 1,020 Climbing FlightAware
12:05AM 41.0140 -71.4430 62° Northeast 550 633 27,500 1,200 Climbing FlightAware
12:06AM 41.0800 -71.2850 61° Northeast 553 636 28,300 840 Climbing FlightAware
12:07AM 41.1330 -71.1560 61° Northeast 558 642 28,900 960 Climbing FlightAware
12:08AM 41.1840 -71.0340 61° Northeast 558 642 29,700 1,020 Climbing FlightAware
12:08AM 41.2310 -70.9190 61° Northeast 559 643 30,300 1,020 Climbing FlightAware
12:10AM 41.3260 -70.6850 62° Northeast 557 641 31,700 960 Climbing FlightAware
12:10AM 41.3720 -70.5730 61° Northeast 556 640 32,200 840 Climbing FlightAware
12:11AM 41.4320 -70.4210 62° Northeast 555 639 33,000 480 Climbing FlightAware
12:12AM 41.4850 -70.2900 62° Northeast 555 639 33,000  Level FlightAware
12:13AM 41.5220 -70.1980 62° Northeast 555 639 33,000  Level FlightAware
12:14AM 41.5980 -70.0060 62° Northeast 33,000  Level FlightAware
12:14AM 41.6520 -69.8730 61° Northeast 557 641 33,000  Level FlightAware
12:15AM 41.7070 -69.7330 62° Northeast 557 641 33,000  Level FlightAware
12:16AM 41.7560 -69.6080 62° Northeast 556 640 33,000  Level FlightAware
12:17AM 41.8200 -69.4450 62° Northeast 556 640 33,000  Level FlightAware
12:17AM 41.8670 -69.3250 62° Northeast 554 638 33,000  Level FlightAware
12:18AM 41.9440 -69.1260 62° Northeast 555 639 33,000  Level FlightAware
12:19AM 41.9890 -69.0060 63° Northeast 552 635 33,000  Level FlightAware
12:20AM 42.0360 -68.8840 63° Northeast 552 635 33,000  Level FlightAware
12:20AM 42.0910 -68.7420 62° Northeast 551 634 33,000  Level FlightAware
12:21AM 42.1420 -68.6060 63° Northeast 551 634 33,000  Level FlightAware
12:22AM 42.1870 -68.4870 63° Northeast 551 634 33,000  Level FlightAware
12:22AM 42.2400 -68.3450 63° Northeast 551 634 33,000  Level FlightAware
12:23AM 42.2840 -68.2310 62° Northeast 550 633 33,000  Level FlightAware
12:24AM 42.3460 -68.0610 64° Northeast 551 634 33,000  Level FlightAware
12:25AM 42.3800 -67.9660 64° Northeast 551 634 33,000  Level FlightAware
12:25AM 42.4160 -67.8660 64° Northeast 551 634 33,000  Level FlightAware
12:26AM 42.4620 -67.7390 64° Northeast 551 634 33,000  Level FlightAware
12:27AM 42.5350 -67.5490 62° Northeast 555 639 33,000  Level FlightAware
12:28AM 42.6020 -67.3640 64° Northeast 555 639 33,000  Level FlightAware
12:28AM 42.6360 -67.2680 64° Northeast 555 639 33,000  Level FlightAware
12:29AM 42.6820 -67.1400 64° Northeast 555 639 33,000  Level FlightAware
12:30AM 42.7170 -67.0410 64° Northeast 555 639 33,000  Level FlightAware
12:31AM 42.7630 -66.9130 64° Northeast 555 639 33,000  Level FlightAware
12:31AM 42.7980 -66.8170 64° Northeast 555 639 33,000  Level FlightAware
12:32AM 42.8940 -66.5480 64° Northeast 564 649 33,000  Level FlightAware
12:33AM 42.9450 -66.4000 65° Northeast 564 649 33,000  Level FlightAware
12:33AM 42.9900 -66.2750 64° Northeast 564 649 33,000  Level FlightAware
12:34AM 43.0340 -66.1460 65° Northeast 565 650 33,000  Level FlightAware
12:35AM 43.0840 -66.0010 65° Northeast 564 649 33,000  Level FlightAware
12:35AM 43.1290 -65.8720 64° Northeast 564 649 33,000  Level FlightAware
12:36AM 43.1730 -65.7430 65° Northeast 564 649 33,000  Level FlightAware
12:37AM 43.2230 -65.5970 65° Northeast 560 644 33,000  Level FlightAware
12:38AM 43.2660 -65.4670 66° East 560 644 33,000  Level FlightAware
12:38AM 43.3170 -65.3180 65° Northeast 561 646 33,000  Level FlightAware
12:39AM 43.3600 -65.1910 65° Northeast 561 646 33,000  Level FlightAware
12:40AM 43.4080 -65.0450 66° East 561 646 33,000  Level FlightAware
12:40AM 43.4520 -64.9140 65° Northeast 561 646 33,000  Level FlightAware
12:41AM 43.4960 -64.7800 66° East 562 647 33,000  Level FlightAware
12:42AM 43.5440 -64.6320 66° East 562 647 33,000  Level FlightAware
12:43AM 43.5940 -64.4810 65° Northeast 562 647 33,000  Level FlightAware
12:43AM 43.6370 -64.3470 66° East 562 647 33,000  Level FlightAware
12:44AM 43.7110 -64.1180 66° East 567 652 33,000  Level FlightAware
12:45AM 43.7570 -63.9760 66° East 568 654 33,000  Level FlightAware
12:46AM 43.8060 -63.8230 66° East 568 654 33,000  Level FlightAware
12:47AM 43.8510 -63.6830 66° East 569 655 33,000  Level FlightAware
12:47AM 43.9000 -63.5270 66° East 569 655 33,000  Level FlightAware
12:48AM 43.9400 -63.4000 66° East 569 655 33,000  Level FlightAware
12:49AM 43.9810 -63.2660 67° East 568 654 33,000  Level FlightAware
12:50AM 44.0320 -63.1020 67° East 568 654 33,000  Level FlightAware
12:50AM 44.0660 -62.9950 66° East 568 654 33,000  Level FlightAware
12:51AM 44.1120 -62.8440 67° East 566 651 33,000  Level FlightAware
12:52AM 44.1590 -62.6910 67° East 565 650 33,000  Level FlightAware
12:53AM 44.2120 -62.5130 67° East 565 650 33,000  Level FlightAware
12:53AM 44.2630 -62.3450 67° East 566 651 33,000  Level FlightAware
12:54AM 44.3140 -62.1760 67° East 566 651 33,000  Level FlightAware
12:55AM 44.3470 -62.0670 67° East 566 651 33,000  Level FlightAware
12:56AM 44.3890 -61.9300 67° East 566 651 33,000  Level FlightAware
12:56AM 44.4190 -61.8320 67° East 566 651 33,000  Level FlightAware
12:57AM 44.4500 -61.6333 72° East 570 656 33,000  Level Gander Center
12:57AM 44.4600 -61.6940 67° East 566 651 33,000  Level FlightAware
12:58AM 44.4910 -61.5940 66° East 566 651 33,000  Level FlightAware
12:58AM 44.5167 -61.4167 67° East 570 656 33,000  Level Gander Center
12:58AM 44.5320 -61.4560 67° East 566 651 33,000  Level FlightAware
12:59AM 44.5667 -61.2833 62° Northeast 570 656 33,000  Level Moncton Center
12:59AM 44.5640 -61.3520 67° East 566 651 33,000  Level FlightAware
01:00AM 44.6167 -61.0667 72° East 570 656 33,000  Level Moncton Center
01:01AM 44.6833 -60.8500 67° East 570 656 33,000  Level Moncton Center
01:02AM 44.6721 -60.8693 72° East  Level FlightAware Approximate
01:02AM 44.7333 -60.6500 71° East 570 656 33,000  Level Moncton Center
01:03AM 44.8000 -60.3833 71° East 570 656 33,000  Level Gander Center
01:04AM 44.8500 -60.2167 67° East 570 656 33,000  Level Moncton Center
01:05AM 44.9167 -59.9833 68° East 570 656 33,000  Level Gander Center
01:07AM 45.0033 -59.6420 70° East  Level FlightAware Approximate
01:14AM 45.3305 -58.3178 69° East  Level FlightAware Approximate
01:15AM 45.3800 -58.1295 69° East  Level FlightAware Approximate
01:16AM 45.4291 -57.9409 70° East  Level FlightAware Approximate
01:17AM 45.4779 -57.7519 70° East  Level FlightAware Approximate
01:17AM 45.5833 -57.4500 70° East 570 656 33,000  Level Gander Center
01:18AM 45.5264 -57.5627 70° East  Level FlightAware Approximate
01:18AM 45.6333 -57.2333 72° East 570 656 33,000  Level Gander Center
01:19AM 45.5746 -57.3731 70° East  Level FlightAware Approximate
01:19AM 45.6833 -57.0000 73° East 570 656 33,000  Level Gander Center
01:20AM 45.6225 -57.1831 70° East  Level FlightAware Approximate
01:20AM 45.7167 -56.8333 74° East 570 656 33,000  Level Moncton Center
01:21AM 45.6701 -56.9929 70° East  Level FlightAware Approximate
01:21AM 45.7833 -56.5667 70° East 580 667 33,000  Level Gander Center
01:22AM 45.7173 -56.8023 70° East  Level FlightAware Approximate
01:23AM 45.8638 -56.2170 72° East  Level FlightAware Approximate
01:30AM 46.1639 -54.8604 72° East  Level FlightAware Approximate
01:30AM 46.1833 -54.5833 73° East 580 667 33,000  Level Gander Center
01:31AM 46.2054 -54.6654 73° East  Level FlightAware Approximate
01:31AM 46.2333 -54.3500 73° East 580 667 33,000  Level Gander Center
01:32AM 46.2607 -54.4775 72° East  Level Estimated
01:32AM 46.2833 -54.1333 71° East 590 679 33,000  Level Gander Center
01:33AM 46.3026 -54.2823 73° East  Level FlightAware Approximate
01:33AM 46.3167 -53.9000 78° East 590 679 33,000  Level Gander Center
01:34AM 46.3441 -54.0868 73° East  Level FlightAware Approximate
01:34AM 46.3500 -53.7167 75° East 590 679 33,000  Level Moncton Center
01:35AM 46.3853 -53.8910 73° East  Level FlightAware Approximate
01:35AM 46.4000 -53.4333 76° East 590 679 33,000  Level Gander Center
01:36AM 46.4333 -53.2500 75° East 590 679 33,000  Level Moncton Center
01:37AM 46.4833 -52.9833 75° East 580 667 33,000  Level Gander Center
01:39AM 46.6203 -52.6232 61° Northeast  Level FlightAware Approximate
01:44AM 46.7500 -51.4333 70° East 590 679 33,000  Level Moncton Center
01:46AM 46.9786 -51.2744 69° East  Level Estimated
01:46AM 46.8502 -51.0475 69° East  Level Estimated
01:47AM 47.0291 -51.0805 69° East  Level FlightAware Approximate
01:48AM 47.0787 -50.8860 70° East  Level Estimated
01:49AM 47.1273 -50.6908 70° East  Level FlightAware Approximate
01:53AM 47.1907 -49.6858 69° East  Level Estimated
01:54AM 47.2380 -49.4898 70° East  Level Estimated
01:55AM 47.2850 -49.2935 71° East  Level Estimated
01:56AM 47.3314 -49.0979 71° East  Level Estimated
01:57AM 47.3774 -48.9019 71° East  Level Estimated
01:58AM 47.4232 -48.7056 71° East  Level Estimated
01:59AM 47.4686 -48.5090 71° East  Level Estimated
02:00AM 47.5136 -48.3120 71° East  Level Estimated
02:01AM 47.5584 -48.1146 71° East  Level Estimated
02:02AM 47.6027 -47.9170 72° East  Level Estimated
02:03AM 47.6468 -47.7189 72° East  Level Estimated
02:04AM 47.6905 -47.5206 72° East  Level Estimated
02:05AM 47.7339 -47.3219 72° East  Level Estimated
02:06AM 47.7769 -47.1229 72° East  Level Estimated
02:07AM 47.8195 -46.9236 72° East  Level Estimated
02:08AM 47.8619 -46.7239 72° East  Level Estimated
02:09AM 47.9039 -46.5240 73° East  Level Estimated
02:10AM 47.9455 -46.3237 73° East  Level Estimated
02:11AM 47.9868 -46.1230 73° East  Level Estimated
02:12AM 48.0277 -45.9221 73° East  Level Estimated
02:13AM 48.0683 -45.7208 73° East  Level Estimated
02:14AM 48.1085 -45.5193 73° East  Level Estimated
02:15AM 48.1484 -45.3174 73° East  Level Estimated
02:16AM 48.1879 -45.1152 74° East  Level Estimated
02:17AM 48.2271 -44.9126 74° East  Level Estimated
02:18AM 48.2659 -44.7098 74° East  Level Estimated
02:19AM 48.3044 -44.5067 74° East  Level Estimated
02:20AM 48.3425 -44.3032 74° East  Level Estimated
02:21AM 48.3802 -44.0995 74° East  Level Estimated
02:22AM 48.4176 -43.8955 74° East  Level Estimated
02:23AM 48.4546 -43.6911 75° East  Level Estimated
02:24AM 48.4913 -43.4865 75° East  Level Estimated
02:25AM 48.5276 -43.2816 75° East  Level Estimated
02:26AM 48.5635 -43.0763 75° East  Level Estimated
02:27AM 48.5991 -42.8708 75° East  Level Estimated
02:28AM 48.6343 -42.6650 75° East  Level Estimated
02:29AM 48.6691 -42.4589 76° East  Level Estimated
02:30AM 48.7035 -42.2526 76° East  Level Estimated
02:31AM 48.7376 -42.0459 76° East  Level Estimated
02:32AM 48.7714 -41.8390 76° East  Level Estimated
02:33AM 48.8047 -41.6318 76° East  Level Estimated
02:34AM 48.8377 -41.4243 76° East  Level Estimated
02:35AM 48.8703 -41.2165 77° East  Level Estimated
02:36AM 48.9025 -41.0085 77° East  Level Estimated
02:37AM 48.9344 -40.8002 77° East  Level Estimated
02:38AM 48.9659 -40.5917 77° East  Level Estimated
02:39AM 48.9970 -40.3829 77° East  Level Estimated
02:40AM 49.0277 -40.1738 77° East  Level Estimated
02:41AM 49.0581 -39.9644 77° East  Level Estimated
02:42AM 49.0880 -39.7548 78° East  Level Estimated
02:43AM 49.1176 -39.5450 78° East  Level Estimated
02:44AM 49.1470 -39.3339 78° East  Level Estimated
02:45AM 49.1759 -39.1224 78° East  Level Estimated
02:46AM 49.2045 -38.9108 78° East  Level Estimated
02:47AM 49.2327 -38.6989 78° East  Level Estimated
02:48AM 49.2606 -38.4867 79° East  Level Estimated
02:49AM 49.2880 -38.2744 79° East  Level Estimated
02:50AM 49.3150 -38.0617 79° East  Level Estimated
02:51AM 49.3416 -37.8489 79° East  Level Estimated
02:52AM 49.3679 -37.6358 79° East  Level Estimated
02:53AM 49.3937 -37.4225 79° East  Level Estimated
02:54AM 49.4192 -37.2090 80° East  Level Estimated
02:55AM 49.4443 -36.9953 80° East  Level Estimated
02:56AM 49.4690 -36.7813 80° East  Level Estimated
02:57AM 49.4933 -36.5671 80° East  Level Estimated
02:58AM 49.5172 -36.3528 80° East  Level Estimated
02:59AM 49.5406 -36.1382 80° East  Level Estimated
03:00AM 49.5637 -35.9234 81° East  Level Estimated
03:01AM 49.5864 -35.7084 81° East  Level Estimated
03:02AM 49.6087 -35.4932 81° East  Level Estimated
03:03AM 49.6306 -35.2778 81° East  Level Estimated
03:04AM 49.6521 -35.0622 81° East  Level Estimated
03:05AM 49.6732 -34.8464 81° East  Level Estimated
03:06AM 49.6939 -34.6305 81° East  Level Estimated
03:07AM 49.7142 -34.4143 82° East  Level Estimated
03:08AM 49.7341 -34.1980 82° East  Level Estimated
03:09AM 49.7536 -33.9815 82° East  Level Estimated
03:10AM 49.7727 -33.7648 82° East  Level Estimated
03:11AM 49.7914 -33.5480 82° East  Level Estimated
03:12AM 49.8097 -33.3310 82° East  Level Estimated
03:13AM 49.8275 -33.1138 83° East  Level Estimated
03:14AM 49.8450 -32.8965 83° East  Level Estimated
03:15AM 49.8621 -32.6790 83° East  Level Estimated
03:16AM 49.8787 -32.4614 83° East  Level Estimated
03:17AM 49.8950 -32.2436 83° East  Level Estimated
03:18AM 49.9108 -32.0257 83° East  Level Estimated
03:19AM 49.9262 -31.8076 84° East  Level Estimated
03:20AM 49.9412 -31.5895 84° East  Level Estimated
03:21AM 49.9559 -31.3711 84° East  Level Estimated
03:22AM 49.9701 -31.1526 84° East  Level Estimated
03:23AM 49.9838 -30.9340 84° East  Level Estimated
03:24AM 49.9972 -30.7153 84° East  Level Estimated
03:25AM 50.0102 -30.4965 85° East  Level Estimated
03:26AM 50.0228 -30.2775 85° East  Level Estimated
03:27AM 50.0349 -30.0585 85° East  Level Estimated
03:28AM 50.0466 -29.8393 85° East  Level Estimated
03:29AM 50.0579 -29.6200 85° East  Level Estimated
03:30AM 50.0688 -29.4006 85° East  Level Estimated
03:31AM 50.0793 -29.1812 86° East  Level Estimated
03:32AM 50.0894 -28.9616 86° East  Level Estimated
03:33AM 50.0991 -28.7419 86° East  Level Estimated
03:34AM 50.1083 -28.5222 86° East  Level Estimated
03:35AM 50.1171 -28.3023 86° East  Level Estimated
03:36AM 50.1256 -28.0824 86° East  Level Estimated
03:37AM 50.1336 -27.8624 87° East  Level Estimated
03:38AM 50.1412 -27.6424 87° East  Level Estimated
03:39AM 50.1483 -27.4222 87° East  Level Estimated
03:40AM 50.1551 -27.2020 87° East  Level Estimated
03:41AM 50.1614 -26.9818 87° East  Level Estimated
03:42AM 50.1673 -26.7615 88° East  Level Estimated
03:43AM 50.1728 -26.5411 88° East  Level Estimated
03:44AM 50.1779 -26.3207 88° East  Level Estimated
03:45AM 50.1826 -26.1003 88° East  Level Estimated
03:46AM 50.1869 -25.8798 88° East  Level Estimated
03:47AM 50.1907 -25.6592 88° East  Level Estimated
03:48AM 50.1941 -25.4387 89° East  Level Estimated
03:49AM 50.1971 -25.2181 89° East  Level Estimated
03:50AM 50.1997 -24.9974 89° East  Level Estimated
03:51AM 50.2019 -24.7768 89° East  Level Estimated
03:52AM 50.2036 -24.5561 89° East  Level Estimated
03:53AM 50.2049 -24.3354 89° East  Level Estimated
03:54AM 50.2058 -24.1148 90° East  Level Estimated
03:55AM 50.2063 -23.8941 90° East  Level Estimated
03:56AM 50.2064 -23.6734 90° East  Level Estimated
03:57AM 50.2061 -23.4527 90° East  Level Estimated
03:58AM 50.2053 -23.2320 90° East  Level Estimated
03:59AM 50.2041 -23.0113 90° East  Level Estimated
04:00AM 50.2025 -22.7906 91° East  Level Estimated
04:01AM 50.2005 -22.5700 91° East  Level Estimated
04:02AM 50.1981 -22.3493 91° East  Level Estimated
04:03AM 50.1952 -22.1287 91° East  Level Estimated
04:04AM 50.1920 -21.9085 91° East  Level Estimated
04:05AM 50.1883 -21.6887 91° East  Level Estimated
04:06AM 50.1842 -21.4686 92° East  Level Estimated
04:07AM 50.1797 -21.2485 92° East  Level Estimated
04:08AM 50.1748 -21.0285 92° East  Level Estimated
04:09AM 50.1694 -20.8084 92° East  Level Estimated
04:10AM 50.1637 -20.5885 92° East  Level Estimated
04:11AM 50.1575 -20.3686 92° East  Level Estimated
04:12AM 50.1509 -20.1487 93° East  Level Estimated
04:13AM 50.1439 -19.9290 93° East  Level Estimated
04:14AM 50.1365 -19.7092 93° East  Level Estimated
04:15AM 50.1287 -19.4896 93° East  Level Estimated
04:16AM 50.1204 -19.2700 93° East  Level Estimated
04:17AM 50.1117 -19.0506 93° East  Level Estimated
04:18AM 50.1027 -18.8311 94° East  Level Estimated
04:19AM 50.0932 -18.6118 94° East  Level Estimated
04:20AM 50.0833 -18.3926 94° East  Level Estimated
04:21AM 50.0730 -18.1734 94° East  Level Estimated
04:22AM 50.0622 -17.9544 94° East  Level Estimated
04:23AM 50.0511 -17.7354 94° East  Level Estimated
04:24AM 50.0396 -17.5166 95° East  Level Estimated
04:25AM 50.0276 -17.2978 95° East  Level Estimated
04:26AM 50.0152 -17.0792 95° East  Level Estimated
04:27AM 50.0024 -16.8607 95° East  Level Estimated
04:28AM 49.9893 -16.6423 95° East  Level Estimated
04:29AM 49.9757 -16.4240 95° East  Level Estimated
04:30AM 49.9617 -16.2059 96° East  Level Estimated
04:31AM 49.9472 -15.9879 96° East  Level Estimated
04:32AM 49.9324 -15.7700 96° East  Level Estimated
04:33AM 49.9172 -15.5522 96° East  Level Estimated
04:34AM 49.9015 -15.3346 96° East  Level Estimated
04:35AM 49.8855 -15.1172 96° East  Level Estimated
04:36AM 49.8690 -14.8998 97° East  Level Estimated
04:37AM 49.8522 -14.6827 97° East  Level Estimated
04:38AM 49.8349 -14.4656 97° East  Level Estimated
04:39AM 49.8172 -14.2488 97° East  Level Estimated
04:40AM 49.7991 -14.0321 97° East  Level Estimated
04:41AM 49.7807 -13.8155 97° East  Level Estimated
04:41AM 50.3370 -11.7390 98° East 484 557 35,000  Level FlightAware
04:42AM 49.7618 -13.5992 98° East  Level Estimated
04:42AM 50.3080 -11.6100 109° East 485 558 35,000  Level FlightAware
04:42AM 50.2810 -11.4880 109° East 485 558 35,000  Level FlightAware
04:43AM 50.2510 -11.3520 109° East 485 558 35,000  Level FlightAware
04:44AM 50.2110 -11.1800 110° East 479 551 35,000  Level FlightAware
04:44AM 50.1880 -11.0740 109° East 479 551 35,000  Level FlightAware
04:45AM 50.1580 -10.9410 109° East 479 551 35,000  Level FlightAware
04:46AM 50.1360 -10.8410 109° East 479 551 35,000  Level FlightAware
04:47AM 50.1080 -10.7130 109° East 479 551 35,000  Level FlightAware
04:47AM 50.0850 -10.6100 109° East 479 551 35,000  Level FlightAware
04:48AM 50.0250 -10.3790 112° Southeast 473 544 35,000  Level FlightAware
04:49AM 49.9990 -10.2700 110° East 473 544 35,000  Level FlightAware
04:50AM 49.9510 -10.0690 110° East 476 548 35,000  Level FlightAware
04:50AM 49.9170 -9.9250 110° East 479 551 35,000  Level FlightAware
04:51AM 49.8850 -9.7960 111° Southeast 479 551 35,000  Level FlightAware
04:52AM 49.8510 -9.6550 110° East 480 552 35,000  Level FlightAware
04:52AM 49.8180 -9.5200 111° Southeast 480 552 35,000  Level FlightAware
04:53AM 49.7850 -9.3850 111° Southeast 479 551 35,000  Level FlightAware
04:54AM 49.7510 -9.2480 111° Southeast 479 551 35,000  Level FlightAware
04:55AM 49.7150 -9.1080 112° Southeast 478 550 35,000 -120 Level FlightAware
04:55AM 49.6844 -8.9854 112° Southeast 490 564 34,900  Descending FlightAware UK
04:55AM 49.6840 -8.9800 112° Southeast 478 550 35,000  Climbing FlightAware
04:55AM 49.6700 -8.9282 112° Southeast 490 564 34,900 -240 Descending FlightAware UK
04:56AM 49.6555 -8.8709 111° Southeast 490 564 34,900 180 Level FlightAware UK
04:56AM 49.6480 -8.8410 111° Southeast 478 550 35,000  Climbing FlightAware
04:56AM 49.6313 -8.7758 111° Southeast 492 566 34,900 -180 Descending FlightAware UK
04:57AM 49.6170 -8.7186 111° Southeast 492 566 34,900 240 Level FlightAware UK
04:57AM 49.6170 -8.7200 111° Southeast 478 550 35,000  Climbing FlightAware
04:57AM 49.6024 -8.6617 111° Southeast 490 564 34,900 -240 Descending FlightAware UK
04:57AM 49.5877 -8.6049 112° Southeast 490 564 34,900 180 Level FlightAware UK
04:57AM 49.5830 -8.5840 112° Southeast 477 549 35,000  Climbing FlightAware
04:58AM 49.5682 -8.5291 112° Southeast 488 562 34,900 -180 Descending FlightAware UK
04:58AM 49.5535 -8.4724 112° Southeast 492 566 34,900 180 Level FlightAware UK
04:58AM 49.5460 -8.4460 112° Southeast 477 549 35,000  Climbing FlightAware
04:58AM 49.5291 -8.3779 112° Southeast 490 564 34,900 -180 Descending FlightAware UK
04:59AM 49.5144 -8.3212 112° Southeast 490 564 34,900 300 Level FlightAware UK
04:59AM 49.5170 -8.3290 112° Southeast 476 548 35,000  Climbing FlightAware
04:59AM 49.4998 -8.2646 112° Southeast 490 564 34,900 -180 Descending FlightAware UK
04:59AM 49.4842 -8.2087 113° Southeast 488 562 34,900 180 Level FlightAware UK
04:59AM 49.4740 -8.1810 113° Southeast 476 548 35,000  Climbing FlightAware
05:00AM 49.4542 -8.1185 113° Southeast 490 564 34,900 -180 Descending FlightAware UK
05:00AM 49.4359 -8.0647 118° Southeast 490 564 34,900 300 Level FlightAware UK
05:00AM 49.4340 -8.0600 118° Southeast 475 547 35,000  Climbing FlightAware
05:00AM 49.4171 -8.0105 118° Southeast 490 564 34,900 -180 Descending FlightAware UK
05:01AM 49.3983 -7.9570 118° Southeast 490 564 34,900 180 Level FlightAware UK
05:01AM 49.3890 -7.9320 118° Southeast 475 547 35,000  Climbing FlightAware
05:01AM 49.3664 -7.8685 118° Southeast 490 564 34,900 -180 Descending FlightAware UK
05:01AM 49.3472 -7.8156 119° Southeast 490 564 34,900 300 Level FlightAware UK
05:01AM 49.3510 -7.8260 119° Southeast 473 544 35,000  Climbing FlightAware
05:02AM 49.3282 -7.7627 119° Southeast 488 562 34,900 -180 Descending FlightAware UK
05:02AM 49.3026 -7.6922 119° Southeast 488 562 34,900 180 Level FlightAware UK
05:02AM 49.2990 -7.6830 119° Southeast 474 545 35,000  Climbing FlightAware
05:03AM 49.2772 -7.6218 119° Southeast 490 564 34,900 -180 Descending FlightAware UK
05:03AM 49.2581 -7.5691 119° Southeast 492 566 34,900 300 Level FlightAware UK
05:03AM 49.2580 -7.5680 119° Southeast 473 544 35,000  Climbing FlightAware
05:03AM 49.2390 -7.5163 119° Southeast 490 564 34,900 -180 Descending FlightAware UK
05:03AM 49.2200 -7.4636 119° Southeast 490 564 34,900 240 Level FlightAware UK
05:04AM 49.2160 -7.4510 119° Southeast 472 543 35,000  Climbing FlightAware
05:04AM 49.1947 -7.3935 119° Southeast 490 564 34,900 -180 Descending FlightAware UK
05:04AM 49.1757 -7.3410 119° Southeast 488 562 34,900 180 Level FlightAware UK
05:04AM 49.1690 -7.3230 119° Southeast 471 542 35,000  Climbing FlightAware
05:05AM 49.1506 -7.2710 119° Southeast 488 562 34,900 -180 Descending FlightAware UK
05:05AM 49.1316 -7.2187 119° Southeast 490 564 34,900 180 Level FlightAware UK
05:05AM 49.1230 -7.1950 119° Southeast 471 542 35,000  Climbing FlightAware
05:05AM 49.0935 -7.1143 119° Southeast 490 564 34,900  Descending FlightAware UK
05:06AM 49.0800 -7.0760 119° Southeast 471 542 35,000  Climbing FlightAware
05:06AM 49.0616 -7.0274 119° Southeast 488 562 34,900 -180 Descending FlightAware UK
05:06AM 49.0425 -6.9753 119° Southeast 490 564 34,900 180 Level FlightAware UK
05:06AM 49.0330 -6.9520 119° Southeast 470 541 35,000  Climbing FlightAware
05:07AM 49.0104 -6.8881 119° Southeast 490 564 34,900 -180 Descending FlightAware UK
05:07AM 48.9914 -6.8362 119° Southeast 490 564 34,900 300 Level FlightAware UK
05:07AM 48.9900 -6.8340 119° Southeast 467 537 35,000  Climbing FlightAware
05:07AM 48.9723 -6.7845 119° Southeast 492 566 34,900 -180 Descending FlightAware UK
05:08AM 48.9533 -6.7332 119° Southeast 490 564 34,900 180 Level FlightAware UK
05:08AM 48.9440 -6.7080 119° Southeast 463 533 35,000  Climbing FlightAware
05:08AM 48.9216 -6.6482 119° Southeast 488 562 34,900 -180 Descending FlightAware UK
05:08AM 48.9027 -6.5973 119° Southeast 488 562 34,900 300 Level FlightAware UK
05:08AM 48.9020 -6.5950 119° Southeast 461 531 35,000  Climbing FlightAware
05:09AM 48.8839 -6.5465 119° Southeast 488 562 34,900 -180 Descending FlightAware UK
05:09AM 48.8651 -6.4959 119° Southeast 486 559 34,900 240 Level FlightAware UK
05:09AM 48.8580 -6.4800 119° Southeast 460 529 35,000  Climbing FlightAware
05:09AM 48.8401 -6.4287 119° Southeast 486 559 34,900 -180 Descending FlightAware UK
05:10AM 48.8214 -6.3783 119° Southeast 486 559 34,900 240 Level FlightAware UK
05:10AM 48.8140 -6.3620 119° Southeast 459 528 35,000  Climbing FlightAware
05:10AM 48.7962 -6.3116 119° Southeast 486 559 34,900 -180 Descending FlightAware UK
05:10AM 48.7774 -6.2615 120° Southeast 484 557 34,900 240 Level FlightAware UK
05:11AM 48.7740 -6.2530 120° Southeast 458 527 35,000  Climbing FlightAware
05:11AM 48.7522 -6.1948 120° Southeast 486 559 34,900 -180 Descending FlightAware UK
05:11AM 48.7331 -6.1448 120° Southeast 486 559 34,900 180 Level FlightAware UK
05:11AM 48.7220 -6.1170 120° Southeast 459 528 35,000  Climbing FlightAware
05:12AM 48.7013 -6.0614 120° Southeast 486 559 34,900 -180 Descending FlightAware UK
05:12AM 48.6822 -6.0115 120° Southeast 484 557 34,900 240 Level FlightAware UK
05:12AM 48.6790 -6.0030 120° Southeast 460 529 35,000  Climbing FlightAware
05:12AM 48.6633 -5.9613 120° Southeast 486 559 34,900 -240 Descending FlightAware UK
05:13AM 48.6442 -5.9111 120° Southeast 488 562 34,900 180 Level FlightAware UK
05:13AM 48.6360 -5.8940 120° Southeast 461 531 35,000  Climbing FlightAware
05:13AM 48.6186 -5.8444 120° Southeast 486 559 34,900 -180 Descending FlightAware UK
05:13AM 48.5991 -5.7937 120° Southeast 486 559 34,900 180 Level FlightAware UK
05:13AM 48.5900 -5.7710 120° Southeast 463 533 35,000  Climbing FlightAware
05:14AM 48.5733 -5.7267 120° Southeast 488 562 34,900 -180 Descending FlightAware UK
05:14AM 48.5475 -5.6596 120° Southeast 490 564 34,900 240 Level FlightAware UK
05:14AM 48.5470 -5.6590 120° Southeast 462 532 35,000  Climbing FlightAware
05:14AM 48.5280 -5.6093 120° Southeast 490 564 34,900 -180 Descending FlightAware UK
05:15AM 48.5086 -5.5590 120° Southeast 490 564 34,900 240 Level FlightAware UK
05:15AM 48.5030 -5.5450 120° Southeast 462 532 35,000  Climbing FlightAware
05:15AM 48.4830 -5.4922 120° Southeast 488 562 34,900 -180 Descending FlightAware UK
05:15AM 48.4637 -5.4422 120° Southeast 486 559 34,900 180 Level FlightAware UK
05:16AM 48.4530 -5.4170 120° Southeast 462 532 35,000  Climbing FlightAware
05:16AM 48.4378 -5.3759 120° Southeast 486 559 34,900 -240 Descending FlightAware UK
05:16AM 48.4183 -5.3263 121° Southeast 488 562 34,900 180 Level FlightAware UK
05:16AM 48.4080 -5.3010 121° Southeast 461 531 35,000  Climbing FlightAware
05:17AM 48.3665 -5.1939 121° Southeast 488 562 34,900  Descending FlightAware UK
05:17AM 48.3650 -5.1930 121° Southeast 461 531 35,000  Climbing FlightAware
05:17AM 48.3470 -5.1444 121° Southeast 492 566 34,900  Descending FlightAware UK
05:18AM 48.3180 -5.0730 121° Southeast 458 527 35,000  Climbing FlightAware
05:18AM 48.2755 -4.9632 121° Southeast 488 562 34,900  Descending FlightAware UK
05:18AM 48.2750 -4.9630 121° Southeast 456 525 35,000  Climbing FlightAware
05:19AM 48.2560 -4.9142 121° Southeast 488 562 34,900  Descending FlightAware UK
05:19AM 48.2240 -4.8360 121° Southeast 455 524 35,000 60 Climbing FlightAware
05:20AM 48.1810 -4.7280 121° Southeast 452 520 35,000  Level FlightAware
05:20AM 48.1340 -4.6100 121° Southeast 449 517 35,000  Level FlightAware
05:21AM 48.0920 -4.5070 121° Southeast 449 517 35,000  Level FlightAware
05:22AM 48.0440 -4.3910 122° Southeast 448 516 35,000  Level FlightAware
05:22AM 48.0010 -4.2890 122° Southeast 448 516 35,000  Level FlightAware
05:23AM 47.9510 -4.1710 122° Southeast 449 517 35,000  Level FlightAware
05:24AM 47.9080 -4.0690 122° Southeast 449 517 35,000  Level FlightAware
05:25AM 47.8610 -3.9620 123° Southeast 450 518 35,000  Level FlightAware
05:25AM 47.8120 -3.8440 122° Southeast 452 520 35,000  Level FlightAware
05:26AM 47.7690 -3.7370 121° Southeast 455 524 35,000  Level FlightAware
05:27AM 47.7220 -3.6250 122° Southeast 456 525 35,000  Level FlightAware
05:27AM 47.6740 -3.5080 121° Southeast 457 526 35,000  Level FlightAware
05:28AM 47.6310 -3.4000 121° Southeast 458 527 35,000  Level FlightAware
05:29AM 47.5840 -3.2810 120° Southeast 459 528 35,000  Level FlightAware
05:29AM 47.5400 -3.1720 121° Southeast 460 529 35,000  Level FlightAware
05:30AM 47.4940 -3.0580 121° Southeast 461 531 35,000  Level FlightAware
05:31AM 47.4470 -2.9390 120° Southeast 461 531 35,000  Level FlightAware
05:32AM 47.4020 -2.8290 121° Southeast 460 529 35,000  Level FlightAware
05:32AM 47.3550 -2.7130 121° Southeast 461 531 35,000  Level FlightAware
05:33AM 47.3110 -2.6050 121° Southeast 460 529 35,000  Level FlightAware
05:34AM 47.2620 -2.4850 121° Southeast 459 528 35,000  Level FlightAware
05:34AM 47.2180 -2.3780 121° Southeast 460 529 35,000  Level FlightAware
05:35AM 47.1720 -2.2660 121° Southeast 459 528 35,000  Level FlightAware
05:36AM 47.1280 -2.1610 122° Southeast 459 528 35,000  Level FlightAware
05:36AM 47.0810 -2.0470 121° Southeast 459 528 35,000  Level FlightAware
05:37AM 47.0340 -1.9320 121° Southeast 459 528 35,000  Level FlightAware
05:38AM 46.9840 -1.8160 122° Southeast 459 528 35,000  Level FlightAware
05:39AM 46.9390 -1.7070 121° Southeast 459 528 35,000  Level FlightAware
05:39AM 46.8970 -1.6100 122° Southeast 459 528 35,000  Level FlightAware
05:40AM 46.8420 -1.4810 122° Southeast 459 528 35,000  Level FlightAware
05:41AM 46.7970 -1.3750 122° Southeast 460 529 35,000  Level FlightAware
05:41AM 46.7470 -1.2590 122° Southeast 462 532 35,000  Level FlightAware
05:42AM 46.7010 -1.1480 121° Southeast 463 533 35,000  Level FlightAware
05:43AM 46.6540 -1.0430 123° Southeast 463 533 35,000  Level FlightAware
05:43AM 46.6120 -0.9320 119° Southeast 466 536 35,000  Level FlightAware
05:44AM 46.5710 -0.7830 112° Southeast 465 535 35,000  Level FlightAware
05:45AM 46.5370 -0.6650 113° Southeast 465 535 35,000  Level FlightAware
05:46AM 46.5050 -0.5560 113° Southeast 466 536 35,000  Level FlightAware
05:46AM 46.4690 -0.4250 112° Southeast 465 535 35,000  Level FlightAware
05:47AM 46.4330 -0.2940 112° Southeast 464 534 35,000  Level FlightAware
05:49AM 46.3660 -0.0500 112° Southeast 466 536 35,000  Level FlightAware
05:49AM 46.3380 0.0520 112° Southeast 469 540 35,000  Level FlightAware
05:50AM 46.3120 0.1450 112° Southeast 468 539 35,000  Level FlightAware
05:50AM 46.2760 0.2790 111° Southeast 469 540 35,000  Level FlightAware
05:51AM 46.2380 0.4160 112° Southeast 470 541 35,000  Level FlightAware
05:52AM 46.2060 0.5320 112° Southeast 470 541 35,000  Level FlightAware
05:53AM 46.1750 0.6400 112° Southeast 472 543 35,000  Level FlightAware
05:53AM 46.1370 0.7770 112° Southeast 473 544 35,000  Level FlightAware
05:54AM 46.1050 0.8910 112° Southeast 474 545 35,000  Level FlightAware
05:55AM 46.0730 1.0060 112° Southeast 475 547 35,000  Level FlightAware
05:55AM 46.0440 1.1120 111° Southeast 475 547 35,000  Level FlightAware
05:56AM 46.0110 1.2350 111° Southeast 475 547 35,000  Level FlightAware
05:57AM 45.9630 1.3960 113° Southeast 477 549 35,000  Level FlightAware
05:58AM 45.9350 1.4940 112° Southeast 477 549 35,000  Level FlightAware
05:58AM 45.8950 1.6310 113° Southeast 481 554 35,000  Level FlightAware
05:59AM 45.8550 1.7700 112° Southeast 482 555 35,000  Level FlightAware
06:00AM 45.8220 1.8820 113° Southeast 483 556 35,000  Level FlightAware
06:00AM 45.7810 2.0210 113° Southeast 485 558 35,000  Level FlightAware
06:01AM 45.7430 2.1400 115° Southeast 484 557 35,000  Level FlightAware
06:02AM 45.7060 2.2440 117° Southeast 485 558 35,000  Level FlightAware
06:02AM 45.6570 2.3850 116° Southeast 486 559 35,000  Level FlightAware
06:03AM 45.6180 2.5030 115° Southeast 488 562 35,000  Level FlightAware
06:04AM 45.5800 2.6130 116° Southeast 488 562 35,000  Level FlightAware
06:04AM 45.5360 2.7400 116° Southeast 489 563 35,000  Level FlightAware
06:05AM 45.4920 2.8670 116° Southeast 489 563 35,000  Level FlightAware
06:06AM 45.4510 2.9860 116° Southeast 490 564 35,000  Level FlightAware
06:07AM 45.4050 3.1220 116° Southeast 486 559 35,000  Level FlightAware
06:07AM 45.3580 3.2480 118° Southeast 35,000  Level FlightAware
06:08AM 45.3110 3.3810 117° Southeast 491 565 35,000  Level FlightAware
06:09AM 45.2690 3.5010 116° Southeast 492 566 35,000  Level FlightAware
06:10AM 45.2210 3.6340 117° Southeast 492 566 35,000  Level FlightAware
06:10AM 45.1790 3.7520 117° Southeast 492 566 35,000  Level FlightAware
06:11AM 45.1280 3.8740 121° Southeast 493 567 35,000  Level FlightAware
06:12AM 45.0710 4.0060 121° Southeast 489 563 35,000  Level FlightAware
06:13AM 45.0300 4.1090 119° Southeast 490 564 35,000  Level FlightAware
06:14AM 44.9550 4.2840 121° Southeast 491 565 35,000  Level FlightAware
06:14AM 44.9070 4.3960 121° Southeast 492 566 35,000  Level FlightAware
06:15AM 44.8550 4.5210 120° Southeast 493 567 35,000  Level FlightAware
06:16AM 44.8060 4.6380 121° Southeast 499 574 35,000  Level FlightAware
06:17AM 44.7360 4.7990 121° Southeast 498 573 35,000  Level FlightAware
06:17AM 44.6930 4.9020 120° Southeast 499 574 35,000  Level FlightAware
06:18AM 44.6370 5.0330 121° Southeast 499 574 35,000  Level FlightAware
06:19AM 44.5850 5.1520 122° Southeast 499 574 35,000  Level FlightAware
06:19AM 44.5390 5.2600 121° Southeast 499 574 35,000  Level FlightAware
06:20AM 44.4840 5.3870 121° Southeast 500 575 35,000  Level FlightAware
06:21AM 44.4350 5.4980 122° Southeast 501 577 35,000  Level FlightAware
06:22AM 44.3880 5.6080 121° Southeast 501 577 35,000  Level FlightAware
06:22AM 44.3330 5.7320 122° Southeast 498 573 35,000  Level FlightAware
06:23AM 44.2850 5.8400 122° Southeast 499 574 35,000  Level FlightAware
06:24AM 44.2310 5.9610 122° Southeast 500 575 35,000  Level FlightAware
06:24AM 44.1810 6.0740 122° Southeast 500 575 35,000  Level FlightAware
06:25AM 44.1310 6.1870 122° Southeast 500 575 35,000  Level FlightAware
06:26AM 44.0830 6.2950 122° Southeast 500 575 35,000  Level FlightAware
06:26AM 44.0270 6.4180 122° Southeast 501 577 35,000  Level FlightAware
06:28AM 43.9380 6.6140 122° Southeast 501 577 35,000  Level FlightAware
06:28AM 43.8900 6.7200 122° Southeast 501 577 35,000  Level FlightAware
06:29AM 43.8320 6.8460 123° Southeast 506 582 35,000  Level FlightAware
06:30AM 43.7780 6.9640 122° Southeast 505 581 35,000  Level FlightAware
06:30AM 43.7300 7.0700 122° Southeast 505 581 35,000  Level FlightAware
06:31AM 43.6770 7.1840 123° Southeast 505 581 35,000  Level FlightAware
06:32AM 43.6200 7.3060 123° Southeast 507 583 35,000  Level FlightAware
06:32AM 43.5760 7.4010 123° Southeast 507 583 35,000  Level FlightAware
06:33AM 43.5190 7.5230 123° Southeast 507 583 35,000  Level FlightAware
06:34AM 43.4560 7.6560 123° Southeast 507 583 35,000  Level FlightAware
06:35AM 43.4050 7.7640 123° Southeast 507 583 35,000  Level FlightAware
06:35AM 43.3530 7.8750 123° Southeast 506 582 35,000  Level FlightAware
06:36AM 43.2940 7.9990 123° Southeast 506 582 35,000  Level FlightAware
06:37AM 43.2440 8.1040 123° Southeast 505 581 35,000  Level FlightAware
06:37AM 43.1920 8.2110 124° Southeast 506 582 35,000  Level FlightAware
06:38AM 43.1350 8.3310 123° Southeast 507 583 35,000  Level FlightAware
06:39AM 43.0870 8.4300 124° Southeast 506 582 35,000  Level FlightAware
06:40AM 43.0240 8.5610 123° Southeast 507 583 35,000  Level FlightAware
06:40AM 42.9720 8.6650 124° Southeast 508 585 35,000  Level FlightAware
06:41AM 42.9150 8.7850 123° Southeast 508 585 35,000  Level FlightAware
06:42AM 42.8600 8.8970 124° Southeast 509 586 35,000  Level FlightAware
06:42AM 42.8130 8.9930 124° Southeast 508 585 35,000  Level FlightAware
06:43AM 42.7560 9.1070 124° Southeast 508 585 35,000  Level FlightAware
06:44AM 42.7000 9.2210 124° Southeast 508 585 35,000  Level FlightAware
06:44AM 42.6480 9.3240 124° Southeast 507 583 35,000  Level FlightAware
06:45AM 42.5910 9.4440 123° Southeast 509 586 35,000  Level FlightAware
06:46AM 42.5380 9.5650 121° Southeast 509 586 35,000  Level FlightAware
06:46AM 42.4890 9.6710 122° Southeast 510 587 35,000  Level FlightAware
06:47AM 42.4410 9.7800 121° Southeast 509 586 35,000  Level FlightAware
06:48AM 42.3800 9.9100 122° Southeast 509 586 35,000  Level FlightAware
06:49AM 42.3330 10.0130 122° Southeast 509 586 35,000  Level FlightAware
06:49AM 42.2800 10.1290 122° Southeast 509 586 35,000  Level FlightAware
06:50AM 42.2240 10.2500 122° Southeast 510 587 35,000  Level FlightAware
06:51AM 42.1730 10.3580 122° Southeast 510 587 35,000  Level FlightAware
06:51AM 42.1250 10.4630 122° Southeast 510 587 35,000  Level FlightAware
06:52AM 42.0700 10.5790 123° Southeast 511 588 35,000  Level FlightAware
06:53AM 42.0170 10.6940 122° Southeast 511 588 35,000  Level FlightAware
06:53AM 41.9680 10.7960 123° Southeast 511 588 35,000  Level FlightAware
06:54AM 41.9110 10.9190 122° Southeast 511 588 35,000  Level FlightAware
06:55AM 41.8600 11.0240 123° Southeast 511 588 35,000  Level FlightAware
06:56AM 41.8030 11.1470 122° Southeast 511 588 35,000  Level FlightAware
06:56AM 41.7520 11.2530 123° Southeast 511 588 35,000  Level FlightAware
06:57AM 41.6940 11.3730 123° Southeast 511 588 35,000  Level FlightAware
06:58AM 41.6430 11.4770 123° Southeast 510 587 35,000  Level FlightAware
06:58AM 41.5920 11.5820 123° Southeast 509 586 35,000  Level FlightAware
06:59AM 41.5420 11.6850 123° Southeast 509 586 35,000  Level FlightAware
07:00AM 41.4830 11.8090 122° Southeast 509 586 35,000  Level FlightAware
07:00AM 41.4320 11.9120 123° Southeast 510 587 35,000  Level FlightAware
07:01AM 41.3730 12.0330 123° Southeast 506 582 35,000  Level FlightAware
07:02AM 41.3210 12.1380 123° Southeast 507 583 35,000  Level FlightAware
07:03AM 41.2640 12.2540 123° Southeast 513 590 35,000  Level FlightAware
07:03AM 41.2130 12.3560 124° Southeast 513 590 35,000  Level FlightAware
07:04AM 41.1550 12.4740 123° Southeast 514 592 35,000  Level FlightAware
07:05AM 41.1060 12.5820 121° Southeast 514 592 35,000  Level FlightAware
07:05AM 41.0570 12.6930 120° Southeast 514 592 35,000  Level FlightAware
07:06AM 41.0070 12.8070 120° Southeast 514 592 35,000  Level FlightAware
07:07AM 40.9570 12.9210 120° Southeast 514 592 35,000  Level FlightAware
07:07AM 40.9110 13.0240 121° Southeast 514 592 35,000  Level FlightAware
07:08AM 40.8550 13.1510 120° Southeast 514 592 35,000  Level FlightAware
07:09AM 40.8080 13.2560 121° Southeast 514 592 35,000  Level FlightAware
07:10AM 40.7370 13.4180 120° Southeast 512 589 35,000  Level FlightAware
07:10AM 40.6920 13.5180 121° Southeast 514 592 35,000 540 Level FlightAware
07:11AM 40.6470 13.6150 121° Southeast 518 596 35,700 1,140 Climbing FlightAware
07:12AM 40.5880 13.7460 121° Southeast 521 600 36,600 840 Climbing FlightAware
07:13AM 40.5340 13.8690 120° Southeast 523 602 37,000 240 Climbing FlightAware
07:13AM 40.4850 13.9750 121° Southeast 520 598 37,000  Level FlightAware
07:14AM 40.4320 14.0910 121° Southeast 517 595 37,000  Level FlightAware
07:15AM 40.3820 14.1980 122° Southeast 514 592 37,000  Level FlightAware
07:15AM 40.3280 14.3180 121° Southeast 513 590 37,000  Level FlightAware
07:16AM 40.2790 14.4240 121° Southeast 511 588 37,000  Level FlightAware
07:17AM 40.2270 14.5350 122° Southeast 511 588 37,000  Level FlightAware
07:17AM 40.1730 14.6520 121° Southeast 512 589 37,000  Level FlightAware
07:18AM 40.1240 14.7580 121° Southeast 512 589 37,000  Level FlightAware
07:19AM 40.0710 14.8710 121° Southeast 514 592 37,000  Level FlightAware
07:20AM 40.0220 14.9740 122° Southeast 514 592 37,000  Level FlightAware
07:20AM 39.9670 15.0910 121° Southeast 516 594 37,000  Level FlightAware
07:21AM 39.9160 15.1990 122° Southeast 516 594 37,000  Level FlightAware
07:22AM 39.8610 15.3150 122° Southeast 516 594 37,000  Level FlightAware
07:22AM 39.8090 15.4240 122° Southeast 517 595 37,000  Level FlightAware
07:23AM 39.7560 15.5350 122° Southeast 517 595 37,000  Level FlightAware
07:24AM 39.7030 15.6450 122° Southeast 517 595 37,000  Level FlightAware
07:24AM 39.6520 15.7500 122° Southeast 518 596 37,000  Level FlightAware
07:25AM 39.5960 15.8660 122° Southeast 518 596 37,000  Level FlightAware
07:26AM 39.5460 15.9690 122° Southeast 519 597 37,000  Level FlightAware
07:27AM 39.4900 16.0840 122° Southeast 519 597 37,000  Level FlightAware
07:27AM 39.4330 16.2000 122° Southeast 521 600 37,000  Level FlightAware
07:28AM 39.3820 16.3060 122° Southeast 523 602 37,000  Level FlightAware
07:29AM 39.3310 16.4190 120° Southeast 525 604 37,000  Level FlightAware
07:29AM 39.2920 16.5440 112° Southeast 527 606 37,000  Level FlightAware
07:30AM 39.2510 16.6720 112° Southeast 528 608 37,000  Level FlightAware
07:31AM 39.2140 16.7850 113° Southeast 530 610 37,000  Level FlightAware
07:31AM 39.1790 16.9030 111° Southeast 529 609 37,000  Level FlightAware
07:32AM 39.1420 17.0270 111° Southeast 529 609 37,000  Level FlightAware
07:33AM 39.1140 17.1180 112° Southeast 529 609 37,000  Level FlightAware
07:34AM 39.0740 17.2490 111° Southeast 530 610 37,000  Level FlightAware
07:34AM 39.0440 17.3460 112° Southeast 530 610 37,000  Level FlightAware
07:35AM 39.0010 17.4830 112° Southeast 530 610 37,000  Level FlightAware
07:36AM 38.9660 17.5950 112° Southeast 532 612 37,000  Level FlightAware
07:36AM 38.9270 17.7210 112° Southeast 533 613 37,000  Level FlightAware
07:37AM 38.8910 17.8350 112° Southeast 533 613 37,000  Level FlightAware
07:38AM 38.8450 17.9820 112° Southeast 533 613 37,000  Level FlightAware
07:38AM 38.8060 18.1050 112° Southeast 533 613 37,000  Level FlightAware
07:39AM 38.7710 18.2160 112° Southeast 533 613 37,000  Level FlightAware
07:40AM 38.7320 18.3390 112° Southeast 533 613 37,000  Level FlightAware
07:41AM 38.6890 18.4710 113° Southeast 535 616 37,000  Level FlightAware
07:41AM 38.6470 18.6050 112° Southeast 535 616 37,000  Level FlightAware
07:42AM 38.6110 18.7130 113° Southeast 536 617 37,000  Level FlightAware
07:43AM 38.5800 18.8100 112° Southeast 536 617 37,000  Level FlightAware
07:43AM 38.5410 18.9300 113° Southeast 536 617 37,000  Level FlightAware
07:44AM 38.4900 19.1050 110° East 536 617 37,000  Level FlightAware
07:45AM 38.4510 19.2560 108° East 535 616 37,000  Level FlightAware
07:45AM 38.4200 19.3760 108° East 535 616 37,000  Level FlightAware
07:46AM 38.3870 19.4960 109° East 535 616 37,000  Level FlightAware
07:47AM 38.3560 19.6130 109° East 533 613 37,000  Level FlightAware
07:47AM 38.3230 19.7380 109° East 531 611 37,000 300 Level FlightAware
07:48AM 38.2830 19.8830 109° East 533 613 37,500 540 Climbing FlightAware
07:49AM 38.2540 19.9910 109° East 542 624 37,800 360 Climbing FlightAware
07:50AM 38.2180 20.1240 109° East 546 628 38,000 120 Climbing FlightAware
07:50AM 38.1840 20.2450 110° East 547 629 38,000  Level FlightAware
07:51AM 38.1510 20.3670 109° East 548 631 38,000  Level FlightAware
07:52AM 38.1110 20.5050 110° East 548 631 38,000  Level FlightAware
07:52AM 38.0600 20.6450 115° Southeast 547 629 38,000  Level FlightAware
07:53AM 38.0190 20.7550 115° Southeast 547 629 38,000  Level FlightAware
07:54AM 37.9740 20.8710 116° Southeast 548 631 38,000  Level FlightAware
07:54AM 37.9280 20.9930 116° Southeast 549 632 38,000  Level FlightAware
07:55AM 37.8810 21.1170 116° Southeast 549 632 38,000  Level FlightAware
07:56AM 37.8290 21.2530 116° Southeast 551 634 38,000  Level FlightAware
07:57AM 37.7830 21.3720 116° Southeast 550 633 38,000  Level FlightAware
07:57AM 37.7380 21.4900 116° Southeast 550 633 38,000  Level FlightAware
07:58AM 37.6900 21.6110 117° Southeast 550 633 38,000  Level FlightAware
07:59AM 37.6440 21.7300 116° Southeast 551 634 38,000  Level FlightAware
07:59AM 37.5960 21.8500 117° Southeast 550 633 38,000  Level FlightAware
08:00AM 37.5470 21.9800 115° Southeast 551 634 38,000  Level FlightAware
08:01AM 37.5030 22.0890 117° Southeast 552 635 38,000  Level FlightAware
08:02AM 37.4530 22.2160 116° Southeast 553 636 38,000  Level FlightAware
08:02AM 37.4090 22.3290 116° Southeast 556 640 38,000  Level FlightAware
08:03AM 37.3660 22.4680 111° Southeast 559 643 38,000 240 Level FlightAware
08:04AM 37.3310 22.5900 110° East 563 648 38,400 720 Climbing FlightAware
08:04AM 37.2940 22.7170 110° East 564 649 39,000 420 Climbing FlightAware
08:05AM 37.2540 22.8510 111° Southeast 562 647 39,000  Level FlightAware
08:06AM 37.2160 22.9830 110° East 561 646 39,000  Level FlightAware
08:06AM 37.1770 23.1140 110° East 562 647 39,000  Level FlightAware
08:07AM 37.1400 23.2390 110° East 561 646 39,000  Level FlightAware
08:08AM 37.1030 23.3610 111° Southeast 562 647 39,000  Level FlightAware
08:09AM 37.0620 23.4970 111° Southeast 562 647 39,000  Level FlightAware
08:09AM 37.0250 23.6190 111° Southeast 562 647 39,000  Level FlightAware
08:10AM 36.9850 23.7490 111° Southeast 561 646 39,000  Level FlightAware
08:11AM 36.9340 23.9190 111° Southeast 561 646 39,000  Level FlightAware
08:11AM 36.9010 24.0240 111° Southeast 561 646 39,000  Level FlightAware
08:12AM 36.8560 24.1690 111° Southeast 560 644 39,000  Level FlightAware
08:13AM 36.8230 24.2780 111° Southeast 559 643 39,000  Level FlightAware
08:14AM 36.7780 24.4220 111° Southeast 558 642 39,000  Level FlightAware
08:14AM 36.7380 24.5510 111° Southeast 558 642 39,000  Level FlightAware
08:15AM 36.6960 24.6650 115° Southeast 556 640 39,000  Level FlightAware
08:16AM 36.6490 24.7900 115° Southeast 556 640 39,000  Level FlightAware
08:16AM 36.6040 24.9120 115° Southeast 556 640 39,000  Level FlightAware
08:17AM 36.5600 25.0310 115° Southeast 556 640 39,000  Level FlightAware
08:18AM 36.5240 25.1300 114° Southeast 557 641 39,000  Level FlightAware
08:19AM 36.4670 25.2850 115° Southeast 558 642 39,000  Level FlightAware
08:19AM 36.4250 25.3980 115° Southeast 558 642 39,000  Level FlightAware
08:20AM 36.3770 25.5290 114° Southeast 558 642 39,000  Level FlightAware
08:21AM 36.3340 25.6450 115° Southeast 559 643 39,000  Level FlightAware
08:21AM 36.2860 25.7700 115° Southeast 561 646 39,000  Level FlightAware
08:22AM 36.2420 25.8870 115° Southeast 561 646 39,000  Level FlightAware
08:23AM 36.1990 26.0040 114° Southeast 563 648 39,000  Level FlightAware
08:23AM 36.1480 26.1380 115° Southeast 563 648 39,000  Level FlightAware
08:24AM 36.1030 26.2550 115° Southeast 563 648 39,000  Level FlightAware
08:25AM 36.0600 26.3680 115° Southeast 564 649 39,000  Level FlightAware
08:26AM 36.0050 26.5100 116° Southeast 563 648 39,000  Level FlightAware
08:26AM 35.9610 26.6230 116° Southeast 563 648 39,000  Level FlightAware
08:27AM 35.9150 26.7450 115° Southeast 563 648 39,000  Level FlightAware
08:28AM 35.8780 26.8380 116° Southeast 562 647 39,000  Level FlightAware
08:28AM 35.8170 26.9960 115° Southeast 562 647 39,000  Level FlightAware
08:29AM 35.7810 27.0880 116° Southeast 562 647 39,000  Level FlightAware
08:30AM 35.7280 27.2210 116° Southeast 561 646 39,000  Level FlightAware
08:31AM 35.6760 27.3560 115° Southeast 562 647 39,000  Level FlightAware
08:31AM 35.6330 27.4700 115° Southeast 562 647 39,000  Level FlightAware
08:32AM 35.5970 27.5630 115° Southeast 562 647 39,000  Level FlightAware
08:33AM 35.5410 27.7110 115° Southeast 562 647 39,000  Level FlightAware
08:34AM 35.4380 27.9480 118° Southeast 567 652 39,000  Level FlightAware
08:35AM 35.3840 28.0840 116° Southeast 567 652 39,000  Level FlightAware
08:35AM 35.3350 28.2050 116° Southeast 567 652 39,000  Level FlightAware
08:36AM 35.2880 28.3170 117° Southeast 568 654 39,000  Level FlightAware
08:37AM 35.2370 28.4460 116° Southeast 567 652 39,000  Level FlightAware
08:37AM 35.1890 28.5610 117° Southeast 568 654 39,000  Level FlightAware
08:38AM 35.1390 28.6810 117° Southeast 569 655 39,000  Level FlightAware
08:39AM 35.0930 28.7930 117° Southeast 571 657 39,000  Level FlightAware
08:40AM 35.0380 28.9260 117° Southeast 572 658 39,000  Level FlightAware
08:40AM 34.9910 29.0380 117° Southeast 573 659 39,000  Level FlightAware
08:41AM 34.9380 29.1650 117° Southeast 574 661 39,000  Level FlightAware
08:42AM 34.8740 29.3170 117° Southeast 574 661 39,000  Level FlightAware
08:43AM 34.8230 29.4380 117° Southeast 574 661 39,000  Level FlightAware
08:43AM 34.7740 29.5530 117° Southeast 573 659 39,000  Level FlightAware
08:44AM 34.7200 29.6780 118° Southeast 571 657 39,000  Level FlightAware
08:45AM 34.6770 29.7810 117° Southeast 570 656 39,000  Level FlightAware
08:45AM 34.6200 29.9140 117° Southeast 568 654 39,000  Level FlightAware
08:46AM 34.5690 30.0320 118° Southeast 563 648 39,000  Level FlightAware
08:47AM 34.5190 30.1370 120° Southeast 561 646 39,000  Level FlightAware
08:47AM 34.4590 30.2600 121° Southeast 561 646 39,000  Level FlightAware
08:48AM 34.3990 30.3860 120° Southeast 561 646 39,000  Level FlightAware
08:49AM 34.3460 30.4950 120° Southeast 561 646 39,000  Level FlightAware
08:50AM 34.2940 30.6040 120° Southeast 562 647 39,000  Level FlightAware
08:50AM 34.2400 30.7160 120° Southeast 564 649 39,000  Level FlightAware
08:51AM 34.1730 30.8530 121° Southeast 570 656 39,000  Level FlightAware
08:52AM 34.1260 30.9490 121° Southeast 570 656 39,000  Level FlightAware
08:52AM 34.0710 31.0620 120° Southeast 571 657 39,000  Level FlightAware
08:53AM 34.0090 31.1870 121° Southeast 570 656 39,000  Level FlightAware
08:54AM 33.9550 31.2990 120° Southeast 568 654 39,000  Level FlightAware
08:54AM 33.9030 31.4050 121° Southeast 567 652 39,000  Level FlightAware
08:55AM 33.8410 31.5300 121° Southeast 565 650 39,000  Level FlightAware
08:56AM 33.7790 31.6540 121° Southeast 565 650 39,000  Level FlightAware
08:57AM 33.7260 31.7590 121° Southeast 564 649 39,000  Level FlightAware
08:57AM 33.6720 31.8660 121° Southeast 563 648 39,000  Level FlightAware
08:58AM 33.6180 31.9730 121° Southeast 563 648 39,000  Level FlightAware
08:59AM 33.5560 32.0960 121° Southeast 563 648 39,000  Level FlightAware
08:59AM 33.5020 32.2030 121° Southeast 563 648 39,000  Level FlightAware
09:00AM 33.4430 32.3200 121° Southeast 563 648 39,000 -120 Level FlightAware
09:01AM 33.3880 32.4290 121° Southeast 559 643 38,900 -1,680 Descending FlightAware
09:01AM 33.3320 32.5380 122° Southeast 564 649 36,800 -2,940 Descending FlightAware
09:02AM 33.2730 32.6550 121° Southeast 559 643 34,800 -2,340 Descending FlightAware
09:03AM 33.2210 32.7560 122° Southeast 542 624 33,500 -2,220 Descending FlightAware
09:03AM 33.1680 32.8580 122° Southeast 534 615 32,000 -2,160 Descending FlightAware
09:05AM 33.0560 33.0750 122° Southeast 498 573 29,000 -1,920 Descending FlightAware
09:06AM 33.0070 33.1680 122° Southeast 478 550 27,800 -1,980 Descending FlightAware
09:06AM 32.9620 33.2620 120° Southeast 469 540 26,300 -2,160 Descending FlightAware
09:07AM 32.9450 33.3720 100° East 457 526 24,800 -1,560 Descending FlightAware
09:08AM 32.9390 33.4850 94° East 429 494 24,000 -600 Descending FlightAware
09:09AM 32.9330 33.5780 94° East 421 484 24,000  Level FlightAware
09:09AM 32.9280 33.6720 94° East 432 497 24,000  Level FlightAware
09:10AM 32.9230 33.7420 95° East 426 490 24,000 -180 Level FlightAware
09:10AM 32.9180 33.8400 93° East 419 482 23,800 -960 Descending FlightAware
09:11AM 32.9130 33.9310 94° East 404 465 22,700 -1,620 Descending FlightAware
09:12AM 32.9090 33.9970 94° East 397 457 21,700 -2,160 Descending FlightAware
09:12AM 32.9000 34.0430 103° East 391 450 20,900 -3,540 Descending FlightAware
09:12AM 32.8810 34.0790 122° Southeast 384 442 19,900 -2,580 Descending FlightAware
09:13AM 32.8450 34.1120 142° Southeast 365 420 18,900 -1,980 Descending FlightAware
09:13AM 32.7760 34.1290 168° South 345 397 17,600 -1,620 Descending FlightAware
09:14AM 32.7100 34.1360 175° South 339 390 16,600 -1,500 Descending FlightAware
09:15AM 32.6470 34.1430 175° South 331 381 15,600 -1,620 Descending FlightAware
09:15AM 32.5850 34.1500 175° South 328 377 14,500 -1,980 Descending FlightAware
09:16AM 32.5200 34.1570 175° South 322 371 12,900 -2,220 Descending FlightAware
09:17AM 32.4810 34.1700 164° South 332 382 11,900 -1,860 Descending FlightAware
09:17AM 32.4630 34.1850 145° Southeast 335 386 11,600 -840 Descending FlightAware
09:18AM 32.4170 34.2390 135° Southeast 334 384 11,100 -420 Descending FlightAware
09:18AM 32.3840 34.2790 134° Southeast 334 384 11,100  Level FlightAware
09:19AM 32.3390 34.3310 136° Southeast 334 384 11,100 -2,580 Level FlightAware
09:19AM 32.3060 34.3710 134° Southeast 305 351 8,200 -1,860 Descending FlightAware
09:22AM 32.1189 34.6407 125° Southeast  Level FlightAware Approximate
09:22AM 32.2300 34.4700 125° Southeast 290 334 6,600  Level FlightAware
09:24AM 32.0713 34.7301 115° Southeast  Level FlightAware Approximate
09:24AM 32.0840 34.7330 125° Southeast 252 290 5,000  Level FlightAware
09:25AM 32.0000 34.8667 125° Southeast  Level FlightAware Approximate
09:25AM 32.0770 34.7470 121° Southeast 252 290 5,000  Level FlightAware
09:25AM 32.0620 34.7720 125° Southeast 252 290 5,000 -360 Level FlightAware
09:25AM 32.0360 34.8030 135° Southeast 245 282 4,700 -600 Descending FlightAware
09:26AM 32.0010 34.8430 136° Southeast 219 252 4,300 -900 Descending FlightAware
09:27AM 31.9830 34.8630 137° Southeast 221 254 3,700 -1,380 Descending FlightAware
09:27AM 31.9770 34.8710 131° Southeast 221 254 3,500 -1,380 Descending FlightAware
09:27AM 31.9730 34.8880 105° East 215 247 3,100 -1,260 Descending FlightAware
09:28AM 31.9800 34.9260 78° East 196 226 2,500 -660 Descending FlightAware
09:28AM 31.9850 34.9480 75° East 196 226 2,500 -420 Level FlightAware
09:29AM 31.9920 34.9740 72° East 180 207 2,100 -780 Descending FlightAware
09:31AM 32.0095 34.8769 282° West  Level Estimated